Time;durP1;ratioP1;P1;durP2;ratioP2;P2;SDS_P1;SDS_P2;PMS_P1;PMS_P2;Temp;Humidity;BMP_temperature;BMP_pressure;BME280_temperature;BME280_humidity;BME280_pressure;Samples;Min_cycle;Max_cycle;Signal;HPM_P1;HPM_P2
2023/11/28 00:00:25;;;;;;;1.83;1.63;;;;;;;;;;4987648;28;20072;-75
2023/11/28 00:02:51;;;;;;;1.73;1.55;;;;;;;;;;4985018;28;20311;-75
2023/11/28 00:05:16;;;;;;;2.13;1.88;;;;;;;;;;4985557;28;20125;-75
2023/11/28 00:07:41;;;;;;;1.92;1.50;;;;;;;;;;4984948;28;20031;-75
2023/11/28 00:10:08;;;;;;;1.83;1.58;;;;;;;;;;4966392;28;20436;-75
2023/11/28 00:12:34;;;;;;;2.05;1.90;;;;;;;;;;4999291;28;20120;-75
2023/11/28 00:14:59;;;;;;;0.73;0.70;;;;;;;;;;4992637;28;20148;-75
2023/11/28 00:17:25;;;;;;;1.20;1.10;;;;;;;;;;5005649;28;20037;-75
2023/11/28 00:19:50;;;;;;;2.50;1.95;;;;;;;;;;5003411;28;20037;-75
2023/11/28 00:22:15;;;;;;;1.90;1.63;;;;;;;;;;5004135;28;20128;-75
2023/11/28 00:24:41;;;;;;;1.73;1.52;;;;;;;;;;4965627;28;20045;-75
2023/11/28 00:27:08;;;;;;;2.10;1.55;;;;;;;;;;4985503;28;20120;-75
2023/11/28 00:29:33;;;;;;;3.70;2.00;;;;;;;;;;4986206;28;20524;-75
2023/11/28 00:32:00;;;;;;;1.50;1.33;;;;;;;;;;4994085;28;20107;-75
2023/11/28 00:34:26;;;;;;;3.22;1.75;;;;;;;;;;4990500;28;20095;-75
2023/11/28 00:36:51;;;;;;;1.98;1.77;;;;;;;;;;4981244;28;20428;-75
2023/11/28 00:39:17;;;;;;;2.50;1.77;;;;;;;;;;4978908;28;20491;-75
2023/11/28 00:41:42;;;;;;;2.15;1.63;;;;;;;;;;5002259;28;20210;-75
2023/11/28 00:44:09;;;;;;;3.53;2.13;;;;;;;;;;4995914;28;20477;-75
2023/11/28 00:46:39;;;;;;;3.45;2.28;;;;;;;;;;4991718;28;20041;-75
2023/11/28 00:49:04;;;;;;;2.08;1.48;;;;;;;;;;4978699;28;20041;-75
2023/11/28 00:51:29;;;;;;;2.25;1.85;;;;;;;;;;4990495;28;20045;-75
2023/11/28 00:53:55;;;;;;;1.65;1.17;;;;;;;;;;4980967;28;22386;-75
2023/11/28 00:56:21;;;;;;;1.58;1.20;;;;;;;;;;4986282;28;20060;-75
2023/11/28 00:58:47;;;;;;;1.10;1.00;;;;;;;;;;4983927;28;20042;-75
2023/11/28 01:01:13;;;;;;;1.40;1.05;;;;;;;;;;4986673;28;20038;-74
2023/11/28 01:03:38;;;;;;;1.02;0.90;;;;;;;;;;4993557;28;20496;-75
2023/11/28 01:06:05;;;;;;;1.08;0.90;;;;;;;;;;4971608;28;20034;-75
2023/11/28 01:08:30;;;;;;;1.27;1.00;;;;;;;;;;5000768;28;20116;-75
2023/11/28 01:10:56;;;;;;;0.68;0.68;;;;;;;;;;4992678;28;20503;-74
2023/11/28 01:13:21;;;;;;;0.95;0.80;;;;;;;;;;5006638;28;20041;-74
2023/11/28 01:15:47;;;;;;;0.63;0.60;;;;;;;;;;5004355;28;20037;-75
2023/11/28 01:18:12;;;;;;;0.60;0.60;;;;;;;;;;4990760;28;20077;-75
2023/11/28 01:20:38;;;;;;;0.70;0.70;;;;;;;;;;4963654;28;20067;-75
2023/11/28 01:23:03;;;;;;;0.40;0.40;;;;;;;;;;4984704;28;20145;-75
2023/11/28 01:25:29;;;;;;;0.77;0.77;;;;;;;;;;4982642;28;20038;-75
2023/11/28 01:27:54;;;;;;;0.68;0.68;;;;;;;;;;4997742;28;20045;-75
2023/11/28 01:30:20;;;;;;;0.90;0.90;;;;;;;;;;4990619;28;20045;-75
2023/11/28 01:32:45;;;;;;;1.10;1.00;;;;;;;;;;5001533;28;20112;-75
2023/11/28 01:35:11;;;;;;;1.10;0.73;;;;;;;;;;4983254;28;20042;-75
2023/11/28 01:37:36;;;;;;;0.95;0.85;;;;;;;;;;4986005;28;20092;-75
2023/11/28 01:40:02;;;;;;;0.70;0.70;;;;;;;;;;4994764;28;20041;-75
2023/11/28 01:42:28;;;;;;;0.50;0.50;;;;;;;;;;4987268;28;20038;-75
2023/11/28 01:44:54;;;;;;;0.60;0.60;;;;;;;;;;4999132;28;20038;-75
2023/11/28 01:47:20;;;;;;;0.70;0.57;;;;;;;;;;5007056;28;20037;-74
2023/11/28 01:49:46;;;;;;;1.00;0.93;;;;;;;;;;4975136;28;20610;-75
2023/11/28 01:52:12;;;;;;;0.80;0.80;;;;;;;;;;4988217;28;20560;-75
2023/11/28 01:54:41;;;;;;;1.02;0.70;;;;;;;;;;4989998;28;20038;-75
2023/11/28 01:57:07;;;;;;;1.10;0.60;;;;;;;;;;4996373;28;20042;-75
2023/11/28 01:59:34;;;;;;;0.63;0.60;;;;;;;;;;4986736;28;20427;-76
2023/11/28 02:01:59;;;;;;;0.90;0.68;;;;;;;;;;4978478;28;20073;-76
2023/11/28 02:04:25;;;;;;;0.40;0.40;;;;;;;;;;4977958;28;20080;-74
2023/11/28 02:06:51;;;;;;;0.40;0.40;;;;;;;;;;4995739;28;20719;-74
2023/11/28 02:09:17;;;;;;;0.73;0.50;;;;;;;;;;5000810;28;20042;-74
2023/11/28 02:11:42;;;;;;;1.35;0.63;;;;;;;;;;4998258;28;20042;-74
2023/11/28 02:14:10;;;;;;;0.82;0.50;;;;;;;;;;4992319;28;20061;-74
2023/11/28 02:16:35;;;;;;;0.40;0.40;;;;;;;;;;4970252;28;20038;-74
2023/11/28 02:19:04;;;;;;;0.43;0.43;;;;;;;;;;4987697;28;20650;-74
2023/11/28 02:21:30;;;;;;;0.20;0.20;;;;;;;;;;4985748;28;20034;-74
2023/11/28 02:23:57;;;;;;;0.30;0.30;;;;;;;;;;4992932;28;20563;-74
2023/11/28 02:26:26;;;;;;;0.32;0.32;;;;;;;;;;4987646;28;20033;-74
2023/11/28 02:28:53;;;;;;;0.13;0.13;;;;;;;;;;4984948;28;20536;-74
2023/11/28 02:31:18;;;;;;;0.30;0.30;;;;;;;;;;4966078;28;20055;-75
2023/11/28 02:33:44;;;;;;;0.20;0.20;;;;;;;;;;4990551;28;20080;-75
2023/11/28 02:36:10;;;;;;;0.30;0.30;;;;;;;;;;4999114;28;20045;-75
2023/11/28 02:38:36;;;;;;;0.32;0.32;;;;;;;;;;4995513;28;20029;-75
2023/11/28 02:41:01;;;;;;;0.55;0.30;;;;;;;;;;4991699;28;20049;-75
2023/11/28 02:43:27;;;;;;;0.40;0.40;;;;;;;;;;4991298;28;20033;-75
2023/11/28 02:45:52;;;;;;;0.30;0.30;;;;;;;;;;4972008;28;20051;-75
2023/11/28 02:48:17;;;;;;;0.38;0.38;;;;;;;;;;5009561;28;20102;-75
2023/11/28 02:50:43;;;;;;;0.25;0.25;;;;;;;;;;5009506;28;20154;-75
2023/11/28 02:53:08;;;;;;;0.35;0.35;;;;;;;;;;5004998;28;20082;-75
2023/11/28 02:55:34;;;;;;;0.20;0.20;;;;;;;;;;5010896;28;20044;-75
2023/11/28 02:57:59;;;;;;;0.90;0.40;;;;;;;;;;5000629;28;20088;-75
2023/11/28 03:00:25;;;;;;;0.20;0.20;;;;;;;;;;4992465;28;20044;-74
2023/11/28 03:02:50;;;;;;;0.35;0.35;;;;;;;;;;5004415;28;20056;-75
2023/11/28 03:05:16;;;;;;;0.63;0.40;;;;;;;;;;5005219;28;20057;-74
2023/11/28 03:07:41;;;;;;;0.45;0.40;;;;;;;;;;5004048;28;20044;-74
2023/11/28 03:10:07;;;;;;;0.30;0.30;;;;;;;;;;5005470;28;20037;-74
2023/11/28 03:12:33;;;;;;;0.70;0.70;;;;;;;;;;4991882;28;20175;-75
2023/11/28 03:14:58;;;;;;;0.47;0.47;;;;;;;;;;4999757;28;21808;-74
2023/11/28 03:17:23;;;;;;;0.73;0.73;;;;;;;;;;5003296;28;20064;-74
2023/11/28 03:19:49;;;;;;;0.40;0.40;;;;;;;;;;5005897;28;20095;-73
2023/11/28 03:22:15;;;;;;;0.52;0.35;;;;;;;;;;5005036;28;20129;-76
2023/11/28 03:24:41;;;;;;;0.68;0.60;;;;;;;;;;4988732;28;20486;-75
2023/11/28 03:27:07;;;;;;;0.60;0.40;;;;;;;;;;4981283;28;20038;-75
2023/11/28 03:29:33;;;;;;;0.50;0.50;;;;;;;;;;4993702;28;20044;-75
2023/11/28 03:31:58;;;;;;;0.47;0.40;;;;;;;;;;4995179;28;20100;-75
2023/11/28 03:34:24;;;;;;;0.40;0.30;;;;;;;;;;4984032;28;20049;-75
2023/11/28 03:36:50;;;;;;;0.30;0.30;;;;;;;;;;4984154;28;20107;-74
2023/11/28 03:39:15;;;;;;;0.50;0.43;;;;;;;;;;4985499;28;20112;-73
2023/11/28 03:41:41;;;;;;;0.20;0.20;;;;;;;;;;4963005;28;20069;-76
2023/11/28 03:44:06;;;;;;;0.20;0.20;;;;;;;;;;4993141;28;20539;-76
2023/11/28 03:46:32;;;;;;;0.40;0.40;;;;;;;;;;4993005;28;20041;-76
2023/11/28 03:48:58;;;;;;;0.45;0.40;;;;;;;;;;4997893;28;20041;-77
2023/11/28 03:51:24;;;;;;;0.20;0.20;;;;;;;;;;5003968;28;20686;-76
2023/11/28 03:53:49;;;;;;;0.98;0.65;;;;;;;;;;5004260;28;20064;-76
2023/11/28 03:56:15;;;;;;;0.63;0.50;;;;;;;;;;4966413;28;20080;-76
2023/11/28 03:58:40;;;;;;;0.30;0.30;;;;;;;;;;5003487;28;20064;-74
2023/11/28 04:01:05;;;;;;;0.30;0.30;;;;;;;;;;5004818;28;20045;-75
2023/11/28 04:03:31;;;;;;;0.50;0.50;;;;;;;;;;5009280;28;20037;-75
2023/11/28 04:05:58;;;;;;;0.38;0.38;;;;;;;;;;5003734;28;20025;-75
2023/11/28 04:08:24;;;;;;;0.60;0.50;;;;;;;;;;5002574;28;20038;-75
2023/11/28 04:10:49;;;;;;;1.05;0.70;;;;;;;;;;4976545;28;20079;-75
2023/11/28 04:13:15;;;;;;;0.68;0.55;;;;;;;;;;4974344;28;20558;-75
2023/11/28 04:15:41;;;;;;;1.85;0.60;;;;;;;;;;4999840;28;20540;-75
2023/11/28 04:18:09;;;;;;;0.68;0.60;;;;;;;;;;4991077;28;20618;-75
2023/11/28 04:20:35;;;;;;;0.60;0.60;;;;;;;;;;4989708;28;20572;-75
2023/11/28 04:23:01;;;;;;;0.73;0.73;;;;;;;;;;4983897;28;20042;-75
2023/11/28 04:25:26;;;;;;;0.40;0.38;;;;;;;;;;4980574;28;20096;-74
2023/11/28 04:27:52;;;;;;;0.82;0.30;;;;;;;;;;4986223;28;20121;-75
2023/11/28 04:30:17;;;;;;;1.10;0.85;;;;;;;;;;4992600;28;20037;-74
2023/11/28 04:32:43;;;;;;;0.50;0.50;;;;;;;;;;5003666;28;20779;-75
2023/11/28 04:35:09;;;;;;;0.60;0.60;;;;;;;;;;5003510;28;20044;-75
2023/11/28 04:37:34;;;;;;;0.65;0.45;;;;;;;;;;4993015;28;20048;-75
2023/11/28 04:40:00;;;;;;;1.08;0.98;;;;;;;;;;4986404;28;20512;-75
2023/11/28 04:42:27;;;;;;;1.05;0.98;;;;;;;;;;5006213;28;20057;-75
2023/11/28 04:44:53;;;;;;;2.60;1.55;;;;;;;;;;5002773;28;20081;-75
2023/11/28 04:47:19;;;;;;;1.48;1.15;;;;;;;;;;5004156;28;20435;-75
2023/11/28 04:49:45;;;;;;;1.67;1.58;;;;;;;;;;5002187;28;20932;-75
2023/11/28 04:52:10;;;;;;;1.25;1.15;;;;;;;;;;4981943;28;20038;-75
2023/11/28 04:54:36;;;;;;;0.70;0.70;;;;;;;;;;4995301;28;20053;-76
2023/11/28 04:57:01;;;;;;;3.17;1.95;;;;;;;;;;4985691;28;20042;-76
2023/11/28 04:59:27;;;;;;;1.77;1.35;;;;;;;;;;5001382;28;20048;-75
2023/11/28 05:01:53;;;;;;;1.52;1.08;;;;;;;;;;4992758;28;20034;-76
2023/11/28 05:04:18;;;;;;;3.20;2.00;;;;;;;;;;4993176;28;20042;-76
2023/11/28 05:06:43;;;;;;;3.15;1.92;;;;;;;;;;4982992;28;20038;-76
2023/11/28 05:09:10;;;;;;;0.95;0.60;;;;;;;;;;5008153;28;20092;-76
2023/11/28 05:11:37;;;;;;;2.33;2.13;;;;;;;;;;4997731;28;20044;-75
2023/11/28 05:14:03;;;;;;;2.80;2.00;;;;;;;;;;4989365;28;20065;-76
2023/11/28 05:16:28;;;;;;;1.35;1.25;;;;;;;;;;5004752;28;20074;-75
2023/11/28 05:18:53;;;;;;;2.40;2.05;;;;;;;;;;5013363;28;20033;-76
2023/11/28 05:21:20;;;;;;;1.45;1.05;;;;;;;;;;4985357;28;20035;-75
2023/11/28 05:23:45;;;;;;;2.83;1.67;;;;;;;;;;5005911;28;20419;-75
2023/11/28 05:26:11;;;;;;;2.38;1.67;;;;;;;;;;5007933;28;20041;-75
2023/11/28 05:28:36;;;;;;;2.17;1.85;;;;;;;;;;4979293;28;20046;-75
2023/11/28 05:31:03;;;;;;;1.98;1.70;;;;;;;;;;4991585;28;20117;-75
2023/11/28 05:33:28;;;;;;;2.00;1.80;;;;;;;;;;4997818;28;20034;-76
2023/11/28 05:35:53;;;;;;;2.67;1.60;;;;;;;;;;4992154;28;20535;-76
2023/11/28 05:38:19;;;;;;;1.05;0.95;;;;;;;;;;5007019;28;20037;-75
2023/11/28 05:40:44;;;;;;;1.40;1.10;;;;;;;;;;5006577;28;20075;-75
2023/11/28 05:43:10;;;;;;;2.20;1.77;;;;;;;;;;5006369;28;20037;-74
2023/11/28 05:45:35;;;;;;;1.67;1.35;;;;;;;;;;5008886;28;20117;-76
2023/11/28 05:48:02;;;;;;;2.17;1.58;;;;;;;;;;5006606;28;20033;-75
2023/11/28 05:50:27;;;;;;;2.15;1.15;;;;;;;;;;4967634;28;20160;-75
2023/11/28 05:52:53;;;;;;;2.15;1.55;;;;;;;;;;4985824;28;20053;-75
2023/11/28 05:55:20;;;;;;;2.53;1.60;;;;;;;;;;4992376;28;20042;-75
2023/11/28 05:57:46;;;;;;;2.03;1.48;;;;;;;;;;4989950;28;20115;-75
2023/11/28 06:00:12;;;;;;;1.88;1.70;;;;;;;;;;4995925;28;20096;-74
2023/11/28 06:02:39;;;;;;;3.88;1.08;;;;;;;;;;4986926;28;20045;-74
2023/11/28 06:05:05;;;;;;;2.63;2.00;;;;;;;;;;4957978;28;20963;-74
2023/11/28 06:07:31;;;;;;;2.85;2.10;;;;;;;;;;5003741;28;20087;-73
2023/11/28 06:09:57;;;;;;;2.72;1.88;;;;;;;;;;4998865;28;20052;-73
2023/11/28 06:12:22;;;;;;;2.65;2.10;;;;;;;;;;4998985;28;20691;-74
2023/11/28 06:14:48;;;;;;;2.53;1.80;;;;;;;;;;5004740;28;20057;-74
2023/11/28 06:17:13;;;;;;;2.05;1.60;;;;;;;;;;4984714;28;20494;-75
2023/11/28 06:19:39;;;;;;;1.83;1.65;;;;;;;;;;5003045;28;20043;-74
2023/11/28 06:22:05;;;;;;;2.38;1.40;;;;;;;;;;5004926;28;20037;-74
2023/11/28 06:24:30;;;;;;;1.30;1.20;;;;;;;;;;5003531;28;20037;-74
2023/11/28 06:26:56;;;;;;;3.42;2.13;;;;;;;;;;5005485;28;20033;-75
2023/11/28 06:29:22;;;;;;;3.13;2.08;;;;;;;;;;5004044;28;20056;-74
2023/11/28 06:31:47;;;;;;;4.05;2.15;;;;;;;;;;4988480;28;20480;-74
2023/11/28 06:34:13;;;;;;;2.33;1.80;;;;;;;;;;5004767;28;20068;-75
2023/11/28 06:36:38;;;;;;;2.22;2.00;;;;;;;;;;5000764;28;20062;-75
2023/11/28 06:39:04;;;;;;;2.88;2.08;;;;;;;;;;5005661;28;20563;-74
2023/11/28 06:41:30;;;;;;;3.40;1.90;;;;;;;;;;5002568;28;20071;-74
2023/11/28 06:43:55;;;;;;;3.38;2.10;;;;;;;;;;5007450;28;20528;-74
2023/11/28 06:46:23;;;;;;;2.90;2.50;;;;;;;;;;4988643;28;20029;-74
2023/11/28 06:48:49;;;;;;;2.90;2.30;;;;;;;;;;4997236;28;20516;-74
2023/11/28 06:51:15;;;;;;;2.90;2.05;;;;;;;;;;5006880;28;20072;-75
2023/11/28 06:53:41;;;;;;;1.83;1.45;;;;;;;;;;5006617;28;20052;-74
2023/11/28 06:56:07;;;;;;;3.53;2.10;;;;;;;;;;5004645;28;20261;-74
2023/11/28 06:58:32;;;;;;;2.85;1.42;;;;;;;;;;5003206;28;20045;-74
2023/11/28 07:00:57;;;;;;;3.22;2.10;;;;;;;;;;4991448;28;20029;-75
2023/11/28 07:03:23;;;;;;;2.47;2.03;;;;;;;;;;5005488;28;20167;-74
2023/11/28 07:05:48;;;;;;;3.08;2.15;;;;;;;;;;5005366;28;20034;-74
2023/11/28 07:08:14;;;;;;;2.70;2.40;;;;;;;;;;5008298;28;20053;-74
2023/11/28 07:10:40;;;;;;;4.45;2.38;;;;;;;;;;5013450;28;20038;-74
2023/11/28 07:13:05;;;;;;;3.55;2.30;;;;;;;;;;5003791;28;20037;-74
2023/11/28 07:15:30;;;;;;;3.60;2.60;;;;;;;;;;4986697;28;20049;-74
2023/11/28 07:17:56;;;;;;;4.88;2.30;;;;;;;;;;4998557;28;20049;-74
2023/11/28 07:20:21;;;;;;;2.03;1.40;;;;;;;;;;5010214;28;20733;-75
2023/11/28 07:22:47;;;;;;;3.67;1.95;;;;;;;;;;5004173;28;20036;-75
2023/11/28 07:25:14;;;;;;;3.90;2.75;;;;;;;;;;5010852;28;20052;-75
2023/11/28 07:27:40;;;;;;;3.03;1.98;;;;;;;;;;5013601;28;20060;-75
2023/11/28 07:30:06;;;;;;;2.45;1.50;;;;;;;;;;4983627;28;20047;-75
2023/11/28 07:32:32;;;;;;;4.03;2.08;;;;;;;;;;5003016;28;20049;-75
2023/11/28 07:34:57;;;;;;;1.98;1.77;;;;;;;;;;5005620;28;20038;-75
2023/11/28 07:37:23;;;;;;;2.35;1.20;;;;;;;;;;5006177;28;20061;-74
2023/11/28 07:39:48;;;;;;;3.88;2.55;;;;;;;;;;4995998;28;20076;-75
2023/11/28 07:42:16;;;;;;;2.63;1.85;;;;;;;;;;4995981;28;20037;-75
2023/11/28 07:44:41;;;;;;;2.03;1.58;;;;;;;;;;4977942;28;20648;-75
2023/11/28 07:47:08;;;;;;;4.00;2.92;;;;;;;;;;5003730;28;20140;-74
2023/11/28 07:49:33;;;;;;;2.15;1.40;;;;;;;;;;5004188;28;20124;-74
2023/11/28 07:51:59;;;;;;;2.35;1.92;;;;;;;;;;4987251;28;20136;-75
2023/11/28 07:54:24;;;;;;;0.75;0.63;;;;;;;;;;5007469;28;20400;-75
2023/11/28 07:56:49;;;;;;;3.15;1.88;;;;;;;;;;4989807;28;20049;-75
2023/11/28 07:59:15;;;;;;;2.10;1.48;;;;;;;;;;4996265;28;20041;-75
2023/11/28 08:01:40;;;;;;;2.65;1.98;;;;;;;;;;5002055;28;20046;-75
2023/11/28 08:04:06;;;;;;;3.67;1.27;;;;;;;;;;4999067;28;20386;-75
2023/11/28 08:06:33;;;;;;;2.45;2.00;;;;;;;;;;4987698;28;20549;-75
2023/11/28 08:08:58;;;;;;;3.80;2.80;;;;;;;;;;4994928;28;20057;-75
2023/11/28 08:11:24;;;;;;;2.70;1.85;;;;;;;;;;4974521;28;20524;-75
2023/11/28 08:13:50;;;;;;;1.35;1.20;;;;;;;;;;4985555;28;20397;-75
2023/11/28 08:16:15;;;;;;;2.80;1.85;;;;;;;;;;4998919;28;20045;-75
2023/11/28 08:18:41;;;;;;;3.08;1.50;;;;;;;;;;4996057;28;20038;-75
2023/11/28 08:21:07;;;;;;;3.38;2.00;;;;;;;;;;4990127;28;20049;-74
2023/11/28 08:23:33;;;;;;;2.50;1.80;;;;;;;;;;5000104;28;20052;-75
2023/11/28 08:25:58;;;;;;;1.35;1.25;;;;;;;;;;4985807;28;20116;-75
2023/11/28 08:28:24;;;;;;;6.30;2.88;;;;;;;;;;4991317;28;20230;-74
2023/11/28 08:30:50;;;;;;;2.15;1.80;;;;;;;;;;4993480;28;20041;-75
2023/11/28 08:33:16;;;;;;;2.42;1.40;;;;;;;;;;4987790;28;20041;-75
2023/11/28 08:35:41;;;;;;;1.20;0.98;;;;;;;;;;4994644;28;20045;-75
2023/11/28 08:38:06;;;;;;;1.33;1.15;;;;;;;;;;5001106;28;20045;-75
2023/11/28 08:40:32;;;;;;;4.50;1.98;;;;;;;;;;4970487;28;20540;-74
2023/11/28 08:42:57;;;;;;;1.30;0.90;;;;;;;;;;4991486;28;20163;-75
2023/11/28 08:45:23;;;;;;;2.83;1.40;;;;;;;;;;4972191;28;20041;-74
2023/11/28 08:47:49;;;;;;;3.38;2.13;;;;;;;;;;4993454;28;20049;-75
2023/11/28 08:50:14;;;;;;;1.75;1.42;;;;;;;;;;4997022;28;20045;-75
2023/11/28 08:52:39;;;;;;;2.88;1.48;;;;;;;;;;4991820;28;20041;-75
2023/11/28 08:55:06;;;;;;;3.00;2.08;;;;;;;;;;4965350;28;20161;-74
2023/11/28 08:57:34;;;;;;;3.05;2.50;;;;;;;;;;4991542;28;20050;-75
2023/11/28 09:00:01;;;;;;;3.00;1.92;;;;;;;;;;4983116;28;20033;-75
2023/11/28 09:02:27;;;;;;;1.65;1.33;;;;;;;;;;4995011;28;20037;-74
2023/11/28 09:04:52;;;;;;;2.75;1.95;;;;;;;;;;4988113;28;20527;-75
2023/11/28 09:07:17;;;;;;;5.90;4.22;;;;;;;;;;4992786;28;20038;-75
2023/11/28 09:09:43;;;;;;;1.98;1.38;;;;;;;;;;4960245;28;20119;-75
2023/11/28 09:12:08;;;;;;;3.75;2.53;;;;;;;;;;4999978;28;20048;-75
2023/11/28 09:14:34;;;;;;;3.33;1.20;;;;;;;;;;4998635;28;20040;-75
2023/11/28 09:16:59;;;;;;;3.22;1.48;;;;;;;;;;5002477;28;20147;-75
2023/11/28 09:19:24;;;;;;;2.63;1.33;;;;;;;;;;5000534;28;20034;-75
2023/11/28 09:21:50;;;;;;;3.03;1.00;;;;;;;;;;4990341;28;20172;-75
2023/11/28 09:24:15;;;;;;;6.30;1.27;;;;;;;;;;4965421;28;20140;-75
2023/11/28 09:26:40;;;;;;;2.05;1.33;;;;;;;;;;4991607;28;20115;-75
2023/11/28 09:29:06;;;;;;;0.95;0.65;;;;;;;;;;4994778;28;20038;-75
2023/11/28 09:31:31;;;;;;;1.25;0.82;;;;;;;;;;4992851;28;20064;-75
2023/11/28 09:33:57;;;;;;;1.08;0.80;;;;;;;;;;4995443;28;20045;-75
2023/11/28 09:36:23;;;;;;;1.02;0.80;;;;;;;;;;4968426;28;20045;-75
2023/11/28 09:38:51;;;;;;;1.52;1.00;;;;;;;;;;4983694;28;20035;-75
2023/11/28 09:41:26;;;;;;;1.00;0.90;;;;;;;;;;4999885;28;20057;-75
2023/11/28 09:43:52;;;;;;;1.52;0.75;;;;;;;;;;5002004;28;20052;-75
2023/11/28 09:46:20;;;;;;;0.82;0.80;;;;;;;;;;5003777;28;20029;-75
2023/11/28 09:48:48;;;;;;;1.40;1.10;;;;;;;;;;4999273;28;20125;-75
2023/11/28 09:51:15;;;;;;;2.05;1.30;;;;;;;;;;4958983;28;20051;-75
2023/11/28 09:53:42;;;;;;;2.15;1.30;;;;;;;;;;4989697;28;20148;-75
2023/11/28 09:56:09;;;;;;;2.08;1.50;;;;;;;;;;4997623;28;20089;-75
2023/11/28 09:58:36;;;;;;;1.20;1.10;;;;;;;;;;4984370;28;20096;-75
2023/11/28 10:01:06;;;;;;;1.73;1.33;;;;;;;;;;4989902;28;20080;-75
2023/11/28 10:03:32;;;;;;;1.20;1.10;;;;;;;;;;4962666;28;20042;-75
2023/11/28 10:05:58;;;;;;;1.73;1.25;;;;;;;;;;4985672;28;20044;-75
2023/11/28 10:08:26;;;;;;;0.65;0.65;;;;;;;;;;5001963;28;20443;-75
2023/11/28 10:10:53;;;;;;;1.38;0.80;;;;;;;;;;4999350;28;20034;-74
2023/11/28 10:13:19;;;;;;;1.00;0.80;;;;;;;;;;5000466;28;20041;-75
2023/11/28 10:15:49;;;;;;;0.98;0.80;;;;;;;;;;4982846;28;20080;-75
2023/11/28 10:18:19;;;;;;;2.67;1.27;;;;;;;;;;4963927;28;20039;-75
2023/11/28 10:20:45;;;;;;;1.13;0.98;;;;;;;;;;4996415;28;20067;-74
2023/11/28 10:23:14;;;;;;;1.40;0.88;;;;;;;;;;4998979;28;20332;-75
2023/11/28 10:25:40;;;;;;;1.17;1.08;;;;;;;;;;5002629;28;20037;-75
2023/11/28 10:28:05;;;;;;;1.30;0.90;;;;;;;;;;5010995;28;20384;-75
2023/11/28 10:30:30;;;;;;;1.60;1.10;;;;;;;;;;4985450;28;20033;-75
2023/11/28 10:32:58;;;;;;;1.05;0.80;;;;;;;;;;4988206;28;20045;-75
2023/11/28 10:35:37;;;;;;;1.20;1.10;;;;;;;;;;4994925;28;20045;-75
2023/11/28 10:38:03;;;;;;;1.42;0.82;;;;;;;;;;4990689;28;20041;-75
2023/11/28 10:40:29;;;;;;;1.70;1.38;;;;;;;;;;4996750;28;20103;-75
2023/11/28 10:42:55;;;;;;;0.50;0.50;;;;;;;;;;4997108;28;20103;-75
2023/11/28 10:45:21;;;;;;;1.02;0.80;;;;;;;;;;4977780;28;20043;-75
2023/11/28 10:47:46;;;;;;;0.90;0.90;;;;;;;;;;4998030;28;20042;-75
2023/11/28 10:50:13;;;;;;;1.20;0.90;;;;;;;;;;4993795;28;20589;-74
2023/11/28 10:52:41;;;;;;;0.55;0.50;;;;;;;;;;4995975;28;20640;-75
2023/11/28 10:55:09;;;;;;;0.77;0.75;;;;;;;;;;4998245;28;20056;-75
2023/11/28 10:57:46;;;;;;;1.13;0.77;;;;;;;;;;4982918;28;20045;-75
2023/11/28 11:00:14;;;;;;;1.25;0.70;;;;;;;;;;4987052;28;20099;-74
2023/11/28 11:02:39;;;;;;;1.88;1.02;;;;;;;;;;4996607;28;20056;-75
2023/11/28 11:05:06;;;;;;;1.83;0.98;;;;;;;;;;4995387;28;20400;-75
2023/11/28 11:07:34;;;;;;;1.73;1.50;;;;;;;;;;4982823;28;20046;-75
2023/11/28 11:10:01;;;;;;;1.52;1.17;;;;;;;;;;4978287;28;20037;-75
2023/11/28 11:12:26;;;;;;;1.40;0.90;;;;;;;;;;4996197;28;20053;-75
2023/11/28 11:15:23;;;;;;;2.15;1.52;;;;;;;;;;4983301;28;20041;-75
2023/11/28 11:17:59;;;;;;;1.27;1.17;;;;;;;;;;4991116;28;20112;-75
2023/11/28 11:20:27;;;;;;;2.88;1.48;;;;;;;;;;4976687;28;20499;-75
2023/11/28 11:22:59;;;;;;;3.13;1.85;;;;;;;;;;4983154;28;20076;-75
2023/11/28 11:25:37;;;;;;;1.73;1.45;;;;;;;;;;4996924;28;20511;-75
2023/11/28 11:28:02;;;;;;;3.08;1.77;;;;;;;;;;5003599;28;20049;-75
2023/11/28 11:30:33;;;;;;;1.48;1.10;;;;;;;;;;5000258;28;20041;-75
2023/11/28 11:32:59;;;;;;;2.28;1.15;;;;;;;;;;4986500;28;20041;-75
2023/11/28 11:35:24;;;;;;;0.90;0.88;;;;;;;;;;5003170;28;20535;-75
2023/11/28 11:37:51;;;;;;;1.48;1.23;;;;;;;;;;5003716;28;20041;-75
2023/11/28 11:40:18;;;;;;;1.42;1.30;;;;;;;;;;4972069;28;20046;-75
2023/11/28 11:42:44;;;;;;;1.25;1.15;;;;;;;;;;4983739;28;20030;-75
2023/11/28 11:45:10;;;;;;;1.42;1.33;;;;;;;;;;4985870;28;20531;-75
2023/11/28 11:47:36;;;;;;;2.65;1.45;;;;;;;;;;4982262;28;20106;-75
2023/11/28 11:50:06;;;;;;;2.10;1.88;;;;;;;;;;4985136;28;20045;-75
2023/11/28 11:52:32;;;;;;;2.00;1.33;;;;;;;;;;4995787;28;20615;-75
2023/11/28 11:55:05;;;;;;;2.00;1.80;;;;;;;;;;4998102;28;20045;-75
2023/11/28 11:57:31;;;;;;;2.90;2.10;;;;;;;;;;4986569;28;20050;-75
2023/11/28 11:59:56;;;;;;;5.82;3.15;;;;;;;;;;4947793;28;20038;-75
2023/11/28 12:02:22;;;;;;;2.30;1.65;;;;;;;;;;4986141;28;20050;-75
2023/11/28 12:04:48;;;;;;;2.80;1.63;;;;;;;;;;4985928;28;20619;-75
2023/11/28 12:07:15;;;;;;;3.80;2.58;;;;;;;;;;4996734;28;20038;-75
2023/11/28 12:09:41;;;;;;;4.50;2.92;;;;;;;;;;4990395;28;20112;-75
2023/11/28 12:12:11;;;;;;;2.25;1.45;;;;;;;;;;5000574;28;20037;-75
2023/11/28 12:14:37;;;;;;;1.60;1.42;;;;;;;;;;4968786;28;20057;-75
2023/11/28 12:17:03;;;;;;;2.90;1.63;;;;;;;;;;4996770;28;20417;-75
2023/11/28 12:19:29;;;;;;;1.40;1.30;;;;;;;;;;4999349;28;20168;-75
2023/11/28 12:22:02;;;;;;;2.20;1.25;;;;;;;;;;5001059;28;20041;-74
2023/11/28 12:24:28;;;;;;;1.70;1.60;;;;;;;;;;4998715;28;20103;-75
2023/11/28 12:26:53;;;;;;;1.35;1.10;;;;;;;;;;4976520;28;20034;-75
2023/11/28 12:29:19;;;;;;;4.22;2.65;;;;;;;;;;4998777;28;20045;-75
2023/11/28 12:31:44;;;;;;;4.43;2.63;;;;;;;;;;4995497;28;20050;-75
2023/11/28 12:34:10;;;;;;;12.27;7.95;;;;;;;;;;4982343;28;20053;-75
2023/11/28 12:36:36;;;;;;;7.15;3.63;;;;;;;;;;4987779;28;20045;-74
2023/11/28 12:39:05;;;;;;;2.10;1.60;;;;;;;;;;4993806;28;20037;-74
2023/11/28 12:41:37;;;;;;;7.38;3.35;;;;;;;;;;4972093;28;20073;-74
2023/11/28 12:44:04;;;;;;;11.13;4.65;;;;;;;;;;4999114;28;20041;-74
2023/11/28 12:46:32;;;;;;;10.52;4.53;;;;;;;;;;5002401;28;20399;-74
2023/11/28 12:48:58;;;;;;;2.33;1.33;;;;;;;;;;4995384;28;20080;-74
2023/11/28 12:51:23;;;;;;;1.88;1.42;;;;;;;;;;4994514;28;20129;-74
2023/11/28 12:53:49;;;;;;;1.63;1.33;;;;;;;;;;4977166;28;20183;-74
2023/11/28 12:56:14;;;;;;;4.75;3.13;;;;;;;;;;4997138;28;20049;-73
2023/11/28 12:58:40;;;;;;;1.50;1.20;;;;;;;;;;4994952;28;20046;-73
2023/11/28 13:01:06;;;;;;;1.48;1.05;;;;;;;;;;4991556;28;20221;-73
2023/11/28 13:03:32;;;;;;;2.28;1.38;;;;;;;;;;4996490;28;20045;-73
2023/11/28 13:05:59;;;;;;;2.20;1.45;;;;;;;;;;4977910;28;20417;-73
2023/11/28 13:08:24;;;;;;;3.58;2.47;;;;;;;;;;4974585;28;20678;-73
2023/11/28 13:10:50;;;;;;;2.03;1.77;;;;;;;;;;4993802;28;20042;-74
2023/11/28 13:13:15;;;;;;;2.92;1.88;;;;;;;;;;4975214;28;20201;-75
2023/11/28 13:15:40;;;;;;;1.95;1.80;;;;;;;;;;4988790;28;20140;-75
2023/11/28 13:18:06;;;;;;;2.72;2.13;;;;;;;;;;4996476;28;20061;-75
2023/11/28 13:20:31;;;;;;;4.50;3.35;;;;;;;;;;4993336;28;20516;-74
2023/11/28 13:22:56;;;;;;;3.42;2.25;;;;;;;;;;4972072;28;20405;-73
2023/11/28 13:25:22;;;;;;;3.42;2.83;;;;;;;;;;4991503;28;20038;-74
2023/11/28 13:27:47;;;;;;;2.13;1.60;;;;;;;;;;4994551;28;20593;-73
2023/11/28 13:30:15;;;;;;;2.65;2.25;;;;;;;;;;4993424;28;20176;-74
2023/11/28 13:32:41;;;;;;;2.58;1.70;;;;;;;;;;4985864;28;20045;-73
2023/11/28 13:35:09;;;;;;;2.00;1.85;;;;;;;;;;4994761;28;20041;-74
2023/11/28 13:37:34;;;;;;;1.70;1.60;;;;;;;;;;4977863;28;20034;-74
2023/11/28 13:39:59;;;;;;;3.97;1.80;;;;;;;;;;4992766;28;20126;-74
2023/11/28 13:42:26;;;;;;;2.33;1.25;;;;;;;;;;5005229;28;20047;-74
2023/11/28 13:44:51;;;;;;;3.17;1.85;;;;;;;;;;4999498;28;20131;-74
2023/11/28 13:47:16;;;;;;;1.58;1.33;;;;;;;;;;4979058;28;20053;-74
2023/11/28 13:49:42;;;;;;;1.35;1.23;;;;;;;;;;4993526;28;20051;-74
2023/11/28 13:52:07;;;;;;;2.35;2.10;;;;;;;;;;4975267;28;20111;-74
2023/11/28 13:54:35;;;;;;;1.27;1.17;;;;;;;;;;4981978;28;20042;-74
2023/11/28 13:57:00;;;;;;;1.95;1.55;;;;;;;;;;4997985;28;20409;-74
2023/11/28 13:59:30;;;;;;;2.22;1.48;;;;;;;;;;4996549;28;20051;-74
2023/11/28 14:01:56;;;;;;;1.30;1.10;;;;;;;;;;4998868;28;20045;-74
2023/11/28 14:04:21;;;;;;;2.58;1.55;;;;;;;;;;4982652;28;20041;-74
2023/11/28 14:06:47;;;;;;;1.25;0.95;;;;;;;;;;5005395;28;20126;-74
2023/11/28 14:09:14;;;;;;;2.13;1.42;;;;;;;;;;5007076;28;20039;-74
2023/11/28 14:11:40;;;;;;;2.05;1.48;;;;;;;;;;5006072;28;20615;-74
2023/11/28 14:14:05;;;;;;;1.83;1.65;;;;;;;;;;4994828;28;20116;-74
2023/11/28 14:16:30;;;;;;;2.13;1.73;;;;;;;;;;5005143;28;20103;-74
2023/11/28 14:18:56;;;;;;;1.63;1.40;;;;;;;;;;4984070;28;20033;-74
2023/11/28 14:21:21;;;;;;;4.80;1.98;;;;;;;;;;5005883;28;20285;-74
2023/11/28 14:23:47;;;;;;;3.05;2.20;;;;;;;;;;5002744;28;20092;-74
2023/11/28 14:26:12;;;;;;;3.80;2.50;;;;;;;;;;5000598;28;20120;-74
2023/11/28 14:28:38;;;;;;;2.03;1.75;;;;;;;;;;5011014;28;20041;-75
2023/11/28 14:31:04;;;;;;;4.45;3.00;;;;;;;;;;5006362;28;20041;-74
2023/11/28 14:33:30;;;;;;;2.88;2.55;;;;;;;;;;4979814;28;20050;-75
2023/11/28 14:35:55;;;;;;;2.85;2.53;;;;;;;;;;4990485;28;20555;-75